Time;durP1;ratioP1;P1;durP2;ratioP2;P2;SDS_P1;SDS_P2;PMS_P1;PMS_P2;Temp;Humidity;BMP_temperature;BMP_pressure;BME280_temperature;BME280_humidity;BME280_pressure;Samples;Min_cycle;Max_cycle;Signal;HPM_P1;HPM_P2
2022/01/22 00:02:12;;;;;;;1999.90;999.90;;;;;;;-1.66;100.00;161957.91;4970634;28;20348;-68
2022/01/22 00:04:39;;;;;;;1999.90;999.90;;;;;;;-0.96;100.00;162145.00;4970947;28;20457;-68
2022/01/22 00:07:06;;;;;;;1999.90;999.90;;;;;;;-0.80;100.00;162186.00;4971424;28;20432;-67
2022/01/22 00:09:51;;;;;;;1999.90;999.90;;;;;;;-0.99;100.00;162136.78;4969712;28;20359;-67
2022/01/22 00:12:42;;;;;;;1999.90;999.90;;;;;;;-1.19;100.00;162083.53;4969527;28;20089;-67
2022/01/22 00:15:12;;;;;;;1999.90;999.90;;;;;;;-1.04;100.00;162121.75;4968822;28;20181;-68
2022/01/22 00:17:39;;;;;;;1999.90;999.90;;;;;;;-1.13;100.00;162099.94;4968799;28;20443;-69
2022/01/22 00:20:07;;;;;;;1999.90;999.90;;;;;;;-1.21;100.00;162078.06;4969459;28;20082;-69
2022/01/22 00:22:36;;;;;;;1999.90;999.90;;;;;;;-1.08;100.00;162113.56;4969807;28;20047;-69
2022/01/22 00:25:08;;;;;;;1999.90;999.90;;;;;;;-1.42;100.00;162023.41;4969877;28;20038;-69
2022/01/22 00:27:40;;;;;;;1999.90;999.90;;;;;;;-1.45;100.00;162015.22;4969281;28;20054;-69
2022/01/22 00:30:10;;;;;;;1999.90;999.90;;;;;;;-1.01;100.00;162131.34;4970737;28;20062;-69
2022/01/22 00:32:37;;;;;;;1999.90;999.90;;;;;;;-0.61;100.00;162237.91;4970123;28;20082;-69
2022/01/22 00:35:05;;;;;;;1999.90;999.90;;;;;;;-0.42;100.00;162287.09;4969621;28;20089;-69
2022/01/22 00:37:32;;;;;;;1999.90;999.90;;;;;;;-0.72;100.00;162207.84;4971738;28;20054;-69
2022/01/22 00:39:59;;;;;;;1999.90;999.90;;;;;;;-0.37;100.00;162300.78;4970866;28;20054;-69
2022/01/22 00:42:26;;;;;;;1999.90;999.90;;;;;;;-0.29;100.00;162321.28;4968795;28;20093;-69
2022/01/22 00:44:53;;;;;;;1999.90;999.90;;;;;;;-0.62;100.00;162233.81;4967124;28;20083;-70
2022/01/22 00:47:19;;;;;;;1999.90;999.90;;;;;;;-0.80;100.00;162187.34;4969388;28;20051;-69
2022/01/22 00:49:47;;;;;;;1999.90;999.90;;;;;;;-0.46;100.00;162277.56;4972667;28;20436;-69
2022/01/22 00:52:13;;;;;;;1999.90;999.90;;;;;;;-0.59;100.00;162242.03;4971600;28;20047;-69
2022/01/22 00:54:40;;;;;;;1999.90;999.90;;;;;;;-1.10;100.00;162108.13;4971882;28;20039;-69
2022/01/22 00:57:07;;;;;;;1999.90;999.90;;;;;;;-1.27;100.00;162061.66;4972633;28;20090;-69
2022/01/22 00:59:33;;;;;;;1999.90;999.90;;;;;;;-1.51;100.00;161997.50;4971815;28;20503;-69
2022/01/22 01:02:00;;;;;;;1999.90;999.90;;;;;;;-1.05;100.00;162119.06;4972268;28;20050;-69
2022/01/22 01:04:28;;;;;;;1999.90;999.90;;;;;;;-0.87;100.00;162168.22;4974347;28;20432;-68
2022/01/22 01:06:55;;;;;;;1999.90;999.90;;;;;;;-0.11;100.00;162369.13;4971675;28;20539;-68
2022/01/22 01:09:21;;;;;;;1999.90;999.90;;;;;;;-0.17;100.00;162352.72;4971280;28;20148;-69
2022/01/22 01:11:52;;;;;;;1999.90;999.90;;;;;;;-0.32;100.00;162313.09;4973822;28;20424;-68
2022/01/22 01:14:26;;;;;;;1999.90;999.90;;;;;;;0.21;100.00;162455.25;4970742;28;20047;-68
2022/01/22 01:17:11;;;;;;;1999.90;999.90;;;;;;;0.15;100.00;162438.88;4970705;28;20081;-68
2022/01/22 01:35:54;;;;;;;1999.90;999.90;;;;;;;-0.23;100.00;162337.69;4970906;28;20082;-67
2022/01/22 01:38:22;;;;;;;1999.90;999.90;;;;;;;-0.18;100.00;162351.31;4978043;28;20082;-67
2022/01/22 01:41:00;;;;;;;1999.90;999.90;;;;;;;-0.46;100.00;162277.56;4974475;28;20086;-69
2022/01/22 01:43:32;;;;;;;1999.90;999.90;;;;;;;-0.44;100.00;162281.66;4971490;28;20152;-69
2022/01/22 01:45:59;;;;;;;1999.90;999.90;;;;;;;-0.66;100.00;162222.88;4970948;28;20086;-70
2022/01/22 01:48:30;;;;;;;1999.90;999.90;;;;;;;-0.52;100.00;162261.16;4971913;28;20462;-70
2022/01/22 01:50:58;;;;;;;1999.90;999.90;;;;;;;-0.12;100.00;162367.78;4971342;28;20093;-71
2022/01/22 01:53:46;;;;;;;1999.90;999.90;;;;;;;0.26;100.00;162468.91;4969258;28;20078;-70
2022/01/22 01:58:58;;;;;;;1999.90;999.90;;;;;;;0.60;100.00;162559.19;4970154;28;20082;-68
2022/01/22 02:01:25;;;;;;;1999.90;999.90;;;;;;;0.13;100.00;162433.38;4969480;28;20109;-68
2022/01/22 02:03:51;;;;;;;1999.90;999.90;;;;;;;0.26;100.00;162468.91;4970020;28;20145;-70
2022/01/22 02:06:18;;;;;;;1999.90;999.90;;;;;;;0.41;100.00;162507.22;4970937;28;20090;-70
2022/01/22 02:08:44;;;;;;;1999.90;999.90;;;;;;;0.49;100.00;162529.06;4969348;28;20047;-70
2022/01/22 02:11:13;;;;;;;1999.90;999.90;;;;;;;0.53;100.00;162541.38;4970122;28;20535;-70
2022/01/22 02:24:52;;;;;;;1999.90;999.90;;;;;;;0.99;100.00;162663.13;4966147;28;20103;-68
2022/01/22 02:27:19;;;;;;;1999.90;999.90;;;;;;;0.63;100.00;162567.38;4970059;28;20094;-68
2022/01/22 02:29:46;;;;;;;1999.90;999.90;;;;;;;0.40;100.00;162504.47;4968689;28;20412;-68
2022/01/22 02:35:21;;;;;;;1999.90;999.90;;;;;;;0.68;100.00;162581.03;4973143;28;20051;-68
2022/01/22 02:37:54;;;;;;;1999.90;999.90;;;;;;;0.44;100.00;162516.78;4967909;28;20436;-68
2022/01/22 02:40:26;;;;;;;1999.90;999.90;;;;;;;0.45;100.00;162519.53;4960185;28;20086;-68
2022/01/22 02:42:52;;;;;;;1999.90;999.90;;;;;;;0.44;100.00;162515.41;4968969;28;20047;-67
2022/01/22 02:45:22;;;;;;;1999.90;999.90;;;;;;;0.31;100.00;162482.63;4969318;28;20092;-68
2022/01/22 02:47:51;;;;;;;1999.90;999.90;;;;;;;0.62;100.00;162563.28;4968685;28;20247;-68
2022/01/22 02:50:18;;;;;;;1999.90;999.90;;;;;;;0.91;100.00;162639.88;4968917;28;20093;-68
2022/01/22 02:52:45;;;;;;;1999.90;999.90;;;;;;;1.01;99.92;162667.25;4969565;28;20518;-68
2022/01/22 02:55:14;;;;;;;1999.90;999.90;;;;;;;0.99;99.67;162663.13;4967625;28;20400;-68
2022/01/22 02:57:43;;;;;;;1999.90;999.90;;;;;;;1.30;98.16;162745.25;4968196;28;20074;-68
2022/01/22 03:00:13;;;;;;;1999.90;999.90;;;;;;;1.56;97.12;162815.06;4974717;28;20097;-68
2022/01/22 03:02:40;;;;;;;1999.90;999.90;;;;;;;1.51;96.54;162800.00;4968187;28;20420;-68
2022/01/22 03:05:07;;;;;;;1999.90;999.90;;;;;;;1.55;96.46;162812.31;4968697;28;20054;-68
2022/01/22 03:07:36;;;;;;;1999.90;999.90;;;;;;;1.57;96.45;162817.75;4969384;28;20050;-68
2022/01/22 03:10:07;;;;;;;1999.90;999.90;;;;;;;1.50;96.08;162798.59;4967455;28;20440;-68
2022/01/22 03:12:51;;;;;;;1999.90;999.90;;;;;;;1.47;96.39;162789.03;4962106;28;20119;-68
2022/01/22 03:18:12;;;;;;;1999.90;999.90;;;;;;;0.83;97.80;162620.75;4968167;28;20054;-68
2022/01/22 03:20:59;;;;;;;1999.90;999.90;;;;;;;1.33;97.08;162752.09;4967651;28;20062;-68
2022/01/22 03:29:03;;;;;;;1999.90;999.90;;;;;;;1.37;96.18;162764.41;4967083;28;20055;-68
2022/01/22 03:31:30;;;;;;;1999.90;999.90;;;;;;;1.50;95.63;162797.25;4967990;28;20090;-68
2022/01/22 03:33:57;;;;;;;1999.90;999.90;;;;;;;1.55;95.80;162810.94;4968066;28;20090;-68
2022/01/22 03:36:28;;;;;;;1999.90;999.90;;;;;;;1.55;95.67;162810.94;4972006;28;20440;-68
2022/01/22 03:38:55;;;;;;;1999.90;999.90;;;;;;;1.60;95.40;162824.63;4967868;28;20070;-68
2022/01/22 03:41:23;;;;;;;1999.90;999.90;;;;;;;1.47;95.91;162789.03;4971421;28;20085;-68
2022/01/22 03:43:53;;;;;;;1999.90;999.90;;;;;;;1.51;95.96;162800.00;4967180;28;20092;-68
2022/01/22 03:46:21;;;;;;;1999.90;999.90;;;;;;;1.66;95.52;162841.03;4968337;28;20424;-68
2022/01/22 03:48:47;;;;;;;1999.90;999.90;;;;;;;1.63;95.38;162832.81;4968607;28;20443;-68
2022/01/22 03:51:14;;;;;;;1999.90;999.90;;;;;;;1.62;95.10;162830.06;4968726;28;20140;-68
2022/01/22 03:53:41;;;;;;;1999.90;999.90;;;;;;;1.73;95.18;162858.88;4967902;28;20075;-68
2022/01/22 03:56:09;;;;;;;1999.90;999.90;;;;;;;1.69;95.32;162849.25;4968907;28;20086;-68
2022/01/22 03:58:40;;;;;;;1999.90;999.90;;;;;;;1.75;94.80;162865.66;4974643;28;20082;-68
2022/01/22 04:03:39;;;;;;;1999.90;999.90;;;;;;;1.67;95.33;162843.78;4968056;28;20512;-68
2022/01/22 04:06:42;;;;;;;;;;;;;;;1.50;95.83;162797.25;4968689;28;20140;-68
2022/01/22 04:09:04;;;;;;;1999.90;999.90;;;;;;;1.52;95.49;162804.09;4967165;28;20327;-68
2022/01/22 04:11:31;;;;;;;1999.90;999.90;;;;;;;1.62;95.31;162828.72;4966526;28;20395;-68
2022/01/22 04:14:02;;;;;;;1999.90;999.90;;;;;;;1.60;95.24;162824.63;4968328;28;20136;-68
2022/01/22 04:16:30;;;;;;;1999.90;999.90;;;;;;;1.27;96.15;162737.03;4968466;28;20078;-68
2022/01/22 04:27:14;;;;;;;1999.90;999.90;;;;;;;1.43;95.75;162778.06;4967345;28;20046;-68
2022/01/22 04:29:41;;;;;;;1999.90;999.90;;;;;;;1.52;95.77;162804.09;4966055;28;20054;-68
2022/01/22 04:32:07;;;;;;;1999.90;999.90;;;;;;;1.28;95.33;162739.78;4967409;28;20055;-69
2022/01/22 04:34:34;;;;;;;1999.90;999.90;;;;;;;1.25;96.03;162731.59;4966227;28;20101;-68
2022/01/22 04:37:01;;;;;;;1999.90;999.90;;;;;;;0.98;96.70;162660.44;4966204;28;20046;-68
2022/01/22 04:39:28;;;;;;;1999.90;999.90;;;;;;;1.05;97.08;162678.19;4966864;28;20055;-68
2022/01/22 04:41:56;;;;;;;1999.90;999.90;;;;;;;1.04;96.07;162676.84;4967443;28;20078;-68
2022/01/22 04:44:27;;;;;;;1999.90;999.90;;;;;;;1.34;95.46;162754.81;4965627;28;20108;-68
2022/01/22 04:47:12;;;;;;;1999.90;999.90;;;;;;;1.32;94.60;162749.34;4967335;28;20082;-68
2022/01/22 04:55:19;;;;;;;1999.90;999.90;;;;;;;0.74;93.17;162594.75;4961127;28;20086;-68
2022/01/22 04:57:46;;;;;;;1999.90;999.90;;;;;;;0.76;93.52;162600.19;4967592;28;20097;-68
2022/01/22 05:00:16;;;;;;;1999.90;999.90;;;;;;;0.84;92.88;162622.09;4967287;28;20055;-68
2022/01/22 05:02:43;;;;;;;1999.90;999.90;;;;;;;0.86;93.09;162628.97;4961971;28;20089;-68
2022/01/22 05:05:10;;;;;;;1999.90;999.90;;;;;;;0.84;93.12;162622.09;4966418;28;20174;-68
2022/01/22 05:07:36;;;;;;;1999.90;999.90;;;;;;;1.00;93.52;162665.88;4967726;28;20101;-68
2022/01/22 05:10:05;;;;;;;1999.90;999.90;;;;;;;1.06;92.66;162680.94;4965726;28;20490;-68
2022/01/22 05:12:32;;;;;;;1999.90;999.90;;;;;;;0.76;93.08;162600.19;4966619;28;20082;-68
2022/01/22 05:14:58;;;;;;;1999.90;999.90;;;;;;;0.33;94.16;162486.72;4968245;28;20089;-68
2022/01/22 05:17:25;;;;;;;1999.90;999.90;;;;;;;0.31;95.44;162481.22;4968108;28;20387;-68
2022/01/22 05:20:07;;;;;;;1999.90;999.90;;;;;;;0.38;94.90;162499.03;4966877;28;20105;-67
2022/01/22 05:25:39;;;;;;;1999.90;999.90;;;;;;;0.13;97.31;162433.38;4947062;28;20086;-67
2022/01/22 05:28:36;;;;;;;1999.90;999.90;;;;;;;0.29;97.23;162475.75;4962640;28;20527;-68
2022/01/22 05:31:31;;;;;;;1999.90;999.90;;;;;;;0.48;96.80;162527.72;4966637;28;20090;-68
2022/01/22 05:36:59;;;;;;;1999.90;999.90;;;;;;;-0.11;98.93;162369.13;4949433;28;20065;-68
2022/01/22 05:39:31;;;;;;;1999.90;999.90;;;;;;;-0.07;98.37;162381.41;4970706;28;20050;-68
2022/01/22 05:42:00;;;;;;;1999.90;999.90;;;;;;;-0.05;97.36;162386.88;4971780;28;20082;-68
2022/01/22 05:44:30;;;;;;;1999.90;999.90;;;;;;;-0.27;98.50;162326.72;4971191;28;20054;-68
2022/01/22 05:47:02;;;;;;;1999.90;999.90;;;;;;;0.11;96.66;162427.91;4970839;28;20078;-68
2022/01/22 05:49:32;;;;;;;1999.90;999.90;;;;;;;-0.14;96.11;162360.94;4969368;28;20144;-68
2022/01/22 05:52:01;;;;;;;1999.90;999.90;;;;;;;-0.16;95.52;162355.44;4965893;28;20110;-68
2022/01/22 05:59:41;;;;;;;1999.90;999.90;;;;;;;-0.47;96.05;162274.81;4969883;28;20452;-68
2022/01/22 06:02:13;;;;;;;1999.90;999.90;;;;;;;-0.24;94.92;162336.34;4971274;28;20374;-68
2022/01/22 06:04:42;;;;;;;1999.90;999.90;;;;;;;-0.10;93.70;162373.22;4969172;28;20054;-68
2022/01/22 06:07:10;;;;;;;1999.90;999.90;;;;;;;0.11;93.32;162429.25;4970281;28;20095;-68
2022/01/22 06:09:40;;;;;;;1999.90;999.90;;;;;;;0.02;92.39;162403.31;4971087;28;20063;-68
2022/01/22 06:14:35;;;;;;;1999.90;999.90;;;;;;;-0.73;93.29;162205.09;4969457;28;20097;-68
2022/01/22 06:17:03;;;;;;;1999.90;999.90;;;;;;;-0.85;94.37;162173.66;4971191;28;20387;-68
2022/01/22 06:19:29;;;;;;;1999.90;999.90;;;;;;;-0.51;94.18;162263.84;4969495;28;20047;-68
2022/01/22 06:21:56;;;;;;;1999.90;999.90;;;;;;;-0.45;94.54;162280.25;4970672;28;20113;-68
2022/01/22 06:24:23;;;;;;;1999.90;999.90;;;;;;;-0.48;95.35;162272.06;4969859;28;20090;-68
2022/01/22 06:26:51;;;;;;;1999.90;999.90;;;;;;;-0.85;96.97;162173.66;4970547;28;20196;-68
2022/01/22 06:29:18;;;;;;;1999.90;999.90;;;;;;;-0.96;99.18;162143.63;4970018;28;20086;-68
2022/01/22 06:31:44;;;;;;;1999.90;999.90;;;;;;;-0.80;99.68;162187.34;4972084;28;20050;-68
2022/01/22 06:34:11;;;;;;;1999.90;999.90;;;;;;;-0.66;99.31;162222.88;4970772;28;20522;-68
2022/01/22 06:36:37;;;;;;;1999.90;999.90;;;;;;;-0.62;98.88;162235.19;4969072;28;20043;-68
2022/01/22 06:39:18;;;;;;;1999.90;999.90;;;;;;;-0.69;99.46;162214.69;4970072;28;20174;-68
2022/01/22 06:41:45;;;;;;;1999.90;999.90;;;;;;;-1.04;100.00;162121.75;4973993;28;20097;-67
2022/01/22 06:44:24;;;;;;;1999.90;999.90;;;;;;;-1.05;100.00;162119.06;4969791;28;20097;-67
2022/01/22 06:46:55;;;;;;;1999.90;999.90;;;;;;;-0.99;100.00;162136.78;4971028;28;20502;-68
2022/01/22 06:49:21;;;;;;;1999.90;999.90;;;;;;;-1.17;100.00;162089.00;4970651;28;20090;-68
2022/01/22 06:51:50;;;;;;;1999.90;999.90;;;;;;;-1.28;100.00;162058.91;4968887;28;20051;-68
2022/01/22 06:54:17;;;;;;;1999.90;999.90;;;;;;;-1.21;100.00;162078.06;4970642;28;20078;-68
2022/01/22 06:56:44;;;;;;;1999.90;999.90;;;;;;;-0.86;100.00;162170.97;4970915;28;20047;-68
2022/01/22 06:59:11;;;;;;;1999.90;999.90;;;;;;;-0.77;100.00;162195.56;4968739;28;20101;-68
2022/01/22 07:01:38;;;;;;;1999.90;999.90;;;;;;;-1.26;100.00;162065.75;4969801;28;20043;-68
2022/01/22 07:04:05;;;;;;;1999.90;999.90;;;;;;;-0.68;100.00;162217.44;4969876;28;20396;-68
2022/01/22 07:06:32;;;;;;;1999.90;999.90;;;;;;;-0.79;100.00;162190.09;4968234;28;20141;-68
2022/01/22 07:08:58;;;;;;;1999.90;999.90;;;;;;;-0.67;99.57;162221.53;4968898;28;20137;-68
2022/01/22 07:11:25;;;;;;;1999.90;999.90;;;;;;;-0.81;99.56;162184.59;4972483;28;20089;-68
2022/01/22 07:13:51;;;;;;;1999.90;999.90;;;;;;;-0.46;98.65;162276.16;4967811;28;20077;-68
2022/01/22 07:16:18;;;;;;;1999.90;999.90;;;;;;;-0.37;97.43;162302.16;4968116;28;20095;-68
2022/01/22 07:18:44;;;;;;;1999.90;999.90;;;;;;;-0.13;96.36;162365.03;4969068;28;20428;-68
2022/01/22 07:21:20;;;;;;;1999.90;999.90;;;;;;;-0.25;95.95;162333.59;4968156;28;20153;-68
2022/01/22 07:26:15;;;;;;;1999.90;999.90;;;;;;;-0.47;96.61;162274.81;4969733;28;20058;-68
2022/01/22 07:28:42;;;;;;;1999.90;999.90;;;;;;;-0.33;96.25;162310.34;4968422;28;20105;-68
2022/01/22 07:31:09;;;;;;;1999.90;999.90;;;;;;;-0.57;96.96;162248.81;4967871;28;20498;-68
2022/01/22 07:33:36;;;;;;;1999.90;999.90;;;;;;;-0.85;98.19;162172.31;4969211;28;20047;-68
2022/01/22 07:36:04;;;;;;;1999.90;999.90;;;;;;;-0.69;98.38;162214.69;4968340;28;20078;-68
2022/01/22 07:38:30;;;;;;;1999.90;999.90;;;;;;;-0.96;99.03;162143.63;4968926;28;20395;-67
2022/01/22 07:40:57;;;;;;;1999.90;999.90;;;;;;;-0.80;98.75;162187.34;4966244;28;20046;-68
2022/01/22 07:43:23;;;;;;;1999.90;999.90;;;;;;;-1.11;99.21;162105.38;4971599;28;20073;-68
2022/01/22 07:45:50;;;;;;;1999.90;999.90;;;;;;;-1.15;100.00;162094.44;4968883;28;20098;-68
2022/01/22 07:48:17;;;;;;;1999.90;999.90;;;;;;;-1.13;100.00;162099.94;4969916;28;20524;-68
2022/01/22 07:50:43;;;;;;;1999.90;999.90;;;;;;;-0.90;100.00;162160.03;4968789;28;20085;-68
2022/01/22 07:53:09;;;;;;;1999.90;999.90;;;;;;;-0.82;100.00;162181.91;4963966;28;20528;-68
2022/01/22 07:55:36;;;;;;;1999.90;999.90;;;;;;;-0.55;99.14;162252.97;4968147;28;20078;-68
2022/01/22 07:58:03;;;;;;;1999.90;999.90;;;;;;;-0.55;99.13;162252.97;4966785;28;20070;-69
2022/01/22 08:00:29;;;;;;;1999.90;999.90;;;;;;;-0.45;99.26;162280.25;4965736;28;20408;-70
2022/01/22 08:02:56;;;;;;;1999.90;999.90;;;;;;;-0.69;99.67;162216.03;4968230;28;20330;-70
2022/01/22 08:05:22;;;;;;;1999.90;999.90;;;;;;;-0.82;100.00;162181.91;4969952;28;20059;-70
2022/01/22 08:07:49;;;;;;;1999.90;999.90;;;;;;;-0.66;100.00;162224.22;4967530;28;20520;-69
2022/01/22 08:10:17;;;;;;;1999.90;999.90;;;;;;;-1.17;100.00;162087.63;4969223;28;20047;-69
2022/01/22 08:12:43;;;;;;;1999.90;999.90;;;;;;;-1.35;100.00;162039.84;4970736;28;20058;-70
2022/01/22 08:15:12;;;;;;;1999.90;999.90;;;;;;;-1.15;100.00;162094.44;4969500;28;20051;-70
2022/01/22 08:17:38;;;;;;;1999.90;999.90;;;;;;;-1.58;100.00;161978.38;4969485;28;20039;-69
2022/01/22 08:20:05;;;;;;;1999.90;999.90;;;;;;;-1.53;100.00;161993.41;4969655;28;20051;-69
2022/01/22 08:22:32;;;;;;;1999.90;999.90;;;;;;;-1.10;100.00;162108.13;4967734;28;20055;-70
2022/01/22 08:25:00;;;;;;;1999.90;999.90;;;;;;;-1.18;100.00;162086.25;4969408;28;20050;-70
2022/01/22 08:29:54;;;;;;;1999.90;999.90;;;;;;;-0.86;100.00;162170.97;4968156;28;20055;-69
2022/01/22 08:37:36;;;;;;;1999.90;999.90;;;;;;;-0.15;99.78;162359.53;4966045;28;20042;-69
2022/01/22 08:40:04;;;;;;;1999.90;999.90;;;;;;;-0.39;100.00;162295.28;4967254;28;20133;-69
2022/01/22 08:42:31;;;;;;;1999.90;999.90;;;;;;;-0.27;100.00;162326.72;4972078;28;20085;-69
2022/01/22 08:44:57;;;;;;;1999.90;999.90;;;;;;;-0.57;100.00;162247.47;4971037;28;20078;-69
2022/01/22 08:47:24;;;;;;;1999.90;999.90;;;;;;;-0.66;100.00;162222.88;4968182;28;20098;-69
2022/01/22 08:49:50;;;;;;;1999.90;999.90;;;;;;;-0.63;100.00;162231.06;4967959;28;20137;-69
2022/01/22 08:52:22;;;;;;;1999.90;999.90;;;;;;;-0.26;100.00;162329.47;4967761;28;20050;-67
2022/01/22 08:54:48;;;;;;;1999.90;999.90;;;;;;;-0.27;100.00;162328.13;4968163;28;20444;-67
2022/01/22 08:57:15;;;;;;;1999.90;999.90;;;;;;;-0.59;100.00;162242.03;4961394;28;20066;-67
2022/01/22 08:59:42;;;;;;;1999.90;999.90;;;;;;;-0.14;100.00;162362.28;4967756;28;20086;-67
2022/01/22 09:02:08;;;;;;;1999.90;999.90;;;;;;;-0.65;100.00;162225.63;4967904;28;20093;-67
2022/01/22 09:04:35;;;;;;;1999.90;999.90;;;;;;;-0.89;100.00;162162.78;4969074;28;20113;-67
2022/01/22 09:07:03;;;;;;;1999.90;999.90;;;;;;;-1.09;100.00;162110.88;4970147;28;20086;-67
2022/01/22 09:09:29;;;;;;;1999.90;999.90;;;;;;;-0.79;100.00;162188.72;4968780;28;20046;-68
2022/01/22 09:11:56;;;;;;;1999.90;999.90;;;;;;;-0.67;100.00;162220.13;4967506;28;20089;-68
2022/01/22 09:14:22;;;;;;;1999.90;999.90;;;;;;;-0.75;100.00;162201.00;4970899;28;20313;-68
2022/01/22 09:16:51;;;;;;;1999.90;999.90;;;;;;;-0.63;100.00;162231.06;4972689;28;20544;-68
2022/01/22 09:19:18;;;;;;;1999.90;999.90;;;;;;;-0.75;100.00;162199.66;4980829;28;20137;-68
2022/01/22 09:21:46;;;;;;;1999.90;999.90;;;;;;;-0.99;100.00;162135.44;4972638;28;20082;-68
2022/01/22 09:24:15;;;;;;;1999.90;999.90;;;;;;;-0.48;100.00;162270.69;4970480;28;20400;-68
2022/01/22 09:26:42;;;;;;;1999.90;999.90;;;;;;;-0.79;100.00;162190.09;4970458;28;20051;-68
2022/01/22 09:29:10;;;;;;;1999.90;999.90;;;;;;;-0.87;100.00;162168.22;4974526;28;20113;-68
2022/01/22 09:31:36;;;;;;;1999.90;999.90;;;;;;;-0.91;100.00;162157.28;4971106;28;20093;-68
2022/01/22 09:34:03;;;;;;;1999.90;999.90;;;;;;;-0.80;100.00;162187.34;4966570;28;20586;-68
2022/01/22 09:36:31;;;;;;;1999.90;999.90;;;;;;;-0.54;100.00;162255.66;4970306;28;20082;-68
2022/01/22 09:38:57;;;;;;;1999.90;999.90;;;;;;;-0.07;100.00;162380.06;4968539;28;20376;-69
2022/01/22 09:41:26;;;;;;;1999.90;999.90;;;;;;;0.16;100.00;162441.56;4970777;28;20155;-68
2022/01/22 09:43:55;;;;;;;1999.90;999.90;;;;;;;-0.04;100.00;162389.63;4971424;28;20054;-68
2022/01/22 09:46:24;;;;;;;1999.90;999.90;;;;;;;0.07;100.00;162418.31;4968684;28;20137;-68
2022/01/22 09:48:52;;;;;;;1999.90;999.90;;;;;;;-0.29;100.00;162321.28;4970595;28;20846;-68
2022/01/22 09:51:19;;;;;;;1999.90;999.90;;;;;;;-0.80;100.00;162187.34;4969576;28;20051;-68
2022/01/22 09:53:46;;;;;;;1999.90;999.90;;;;;;;-0.69;100.00;162214.69;4967470;28;20565;-68
2022/01/22 09:56:17;;;;;;;1999.90;999.90;;;;;;;-0.41;100.00;162291.19;4970515;28;20043;-68
2022/01/22 09:58:44;;;;;;;1999.90;999.90;;;;;;;-0.42;100.00;162287.09;4970900;28;20050;-68
2022/01/22 10:01:23;;;;;;;1999.90;999.90;;;;;;;-0.61;100.00;162236.53;4970792;28;20090;-68
2022/01/22 10:03:51;;;;;;;1999.90;999.90;;;;;;;-0.54;100.00;162255.66;4970887;28;20057;-68
2022/01/22 10:06:29;;;;;;;1999.90;999.90;;;;;;;-0.71;100.00;162211.94;4971449;28;20355;-67
2022/01/22 10:09:15;;;;;;;1999.90;999.90;;;;;;;-0.63;100.00;162231.06;4970823;28;20110;-67
2022/01/22 10:11:42;;;;;;;1999.90;999.90;;;;;;;-0.33;100.00;162310.34;4964415;28;20101;-68
2022/01/22 10:14:09;;;;;;;1999.90;999.90;;;;;;;-0.41;100.00;162289.84;4967819;28;20082;-68
2022/01/22 10:16:37;;;;;;;1999.90;999.90;;;;;;;-0.62;100.00;162233.81;4968641;28;20055;-68
2022/01/22 10:19:21;;;;;;;1999.90;999.90;;;;;;;-0.65;100.00;162225.63;4967072;28;20141;-68
2022/01/22 10:21:59;;;;;;;1999.90;999.90;;;;;;;-0.85;100.00;162172.31;4965498;28;20078;-68
2022/01/22 10:24:41;;;;;;;1999.90;999.90;;;;;;;-0.25;98.34;162332.22;4966580;28;20082;-68
2022/01/22 10:27:33;;;;;;;1999.90;999.90;;;;;;;-0.72;99.24;162209.19;4964005;28;20063;-68
2022/01/22 10:30:13;;;;;;;1999.90;999.90;;;;;;;-1.09;99.52;162110.88;4968203;28;20213;-67
2022/01/22 10:32:47;;;;;;;1999.90;999.90;;;;;;;-0.64;98.63;162228.31;4968470;28;20055;-68
2022/01/22 10:35:23;;;;;;;1999.90;999.90;;;;;;;-0.78;97.44;162192.81;4970937;28;20452;-68
2022/01/22 10:38:10;;;;;;;1999.90;999.90;;;;;;;-0.61;97.37;162236.53;4966030;28;20524;-68
2022/01/22 10:40:40;;;;;;;1999.90;999.90;;;;;;;-0.51;96.21;162263.84;4968590;28;20082;-68
2022/01/22 10:43:16;;;;;;;1999.90;999.90;;;;;;;-0.57;96.20;162247.47;4968958;28;20086;-68
2022/01/22 10:45:57;;;;;;;1999.90;999.90;;;;;;;-0.46;95.72;162277.56;4971610;28;20078;-68
2022/01/22 10:48:23;;;;;;;1999.90;999.90;;;;;;;-0.93;96.85;162151.84;4965748;28;20428;-68
2022/01/22 10:51:03;;;;;;;1999.90;999.90;;;;;;;-0.31;95.20;162317.19;4969127;28;20125;-68
2022/01/22 10:53:52;;;;;;;1999.90;999.90;;;;;;;-0.40;94.65;162292.59;4968077;28;20078;-68
2022/01/22 10:56:22;;;;;;;1999.90;999.90;;;;;;;-0.82;95.40;162181.91;4965544;28;20144;-68
2022/01/22 10:58:55;;;;;;;1999.90;999.90;;;;;;;-0.79;95.73;162188.72;4963912;28;20101;-68
2022/01/22 11:01:51;;;;;;;1999.90;999.90;;;;;;;-0.68;95.68;162217.44;4970755;28;20451;-68
2022/01/22 11:04:34;;;;;;;1999.90;999.90;;;;;;;-1.05;96.47;162119.06;4968359;28;20148;-68
2022/01/22 11:07:06;;;;;;;1999.90;999.90;;;;;;;-1.32;98.04;162049.38;4969317;28;20105;-69
2022/01/22 11:09:54;;;;;;;1999.90;999.90;;;;;;;-1.26;98.48;162065.75;4971666;28;20061;-70
2022/01/22 11:12:20;;;;;;;1999.90;999.90;;;;;;;-1.08;98.96;162113.56;4970181;28;20070;-68
2022/01/22 11:14:50;;;;;;;1999.90;999.90;;;;;;;-1.30;98.45;162053.47;4967638;28;20126;-67
2022/01/22 11:17:22;;;;;;;1999.90;999.90;;;;;;;-0.97;98.54;162140.88;4969026;28;20049;-68
2022/01/22 11:19:50;;;;;;;;;;;;;;;-1.13;97.89;162098.53;4967699;28;20043;-68
2022/01/22 11:22:19;;;;;;;1999.90;999.90;;;;;;;-1.06;97.92;162117.66;4966986;28;20388;-68
2022/01/22 11:24:49;;;;;;;1999.90;999.90;;;;;;;-1.26;99.32;162064.41;4965968;28;20082;-68
2022/01/22 11:27:18;;;;;;;1999.90;999.90;;;;;;;-1.32;98.47;162049.38;4968527;28;20408;-68
2022/01/22 11:29:49;;;;;;;1999.90;999.90;;;;;;;-0.96;97.62;162143.63;4966216;28;20059;-69
2022/01/22 11:32:19;;;;;;;1999.90;999.90;;;;;;;-1.24;98.43;162069.84;4968091;28;20054;-68
2022/01/22 11:34:48;;;;;;;1999.90;999.90;;;;;;;-1.03;98.63;162125.84;4967760;28;20058;-68
2022/01/22 11:37:45;;;;;;;1999.90;999.90;;;;;;;-0.95;98.78;162147.75;4967619;28;20079;-68
2022/01/22 11:40:21;;;;;;;1999.90;999.90;;;;;;;-0.80;97.47;162187.34;4966553;28;20113;-66
2022/01/22 11:43:08;;;;;;;1999.90;999.90;;;;;;;-0.40;95.94;162293.94;4970415;28;20344;-67
2022/01/22 11:45:54;;;;;;;1999.90;999.90;;;;;;;-1.39;97.90;162028.91;4966822;28;20057;-67
2022/01/22 11:48:27;;;;;;;1999.90;999.90;;;;;;;-0.78;97.99;162192.81;4966877;28;20066;-68
2022/01/22 11:50:56;;;;;;;1999.90;999.90;;;;;;;-0.85;97.36;162173.66;4968598;28;20320;-68
2022/01/22 11:53:33;;;;;;;1999.90;999.90;;;;;;;-1.10;98.24;162106.78;4967451;28;20086;-67
2022/01/22 11:56:11;;;;;;;1999.90;999.90;;;;;;;-1.10;98.41;162108.13;4966705;28;20105;-68
2022/01/22 11:58:56;;;;;;;1999.90;999.90;;;;;;;-1.46;98.54;162012.53;4968503;28;20047;-67
2022/01/22 12:02:02;;;;;;;1999.90;999.90;;;;;;;-0.97;98.70;162140.88;4968184;28;20114;-68
2022/01/22 12:04:34;;;;;;;1999.90;999.90;;;;;;;-0.86;98.17;162170.97;4964533;28;20073;-68
2022/01/22 12:07:00;;;;;;;1999.90;999.90;;;;;;;-1.62;99.40;161970.19;4965903;28;20303;-68
2022/01/22 12:09:31;;;;;;;1999.90;999.90;;;;;;;-1.28;98.14;162058.91;4968932;28;20046;-68
2022/01/22 12:15:05;;;;;;;1999.90;999.90;;;;;;;-1.48;98.85;162007.03;4966252;28;20365;-66
2022/01/22 12:17:46;;;;;;;1999.90;999.90;;;;;;;-1.02;97.93;162128.59;4968510;28;20145;-67
2022/01/22 12:23:10;;;;;;;1999.90;999.90;;;;;;;-1.69;98.99;161949.72;4967088;28;20009;-66
2022/01/22 12:25:37;;;;;;;1999.90;999.90;;;;;;;-0.96;97.76;162145.00;4967959;28;20090;-66
2022/01/22 12:28:06;;;;;;;1999.90;999.90;;;;;;;-1.51;97.58;161998.84;4976056;28;20380;-66
2022/01/22 12:30:39;;;;;;;1999.90;999.90;;;;;;;-1.48;98.30;162005.69;4966191;28;20475;-66